Time;durP1;ratioP1;P1;durP2;ratioP2;P2;SDS_P1;SDS_P2;PMS_P1;PMS_P2;Temp;Humidity;BMP_temperature;BMP_pressure;BME280_temperature;BME280_humidity;BME280_pressure;Samples;Min_cycle;Max_cycle;Signal;HPM_P1;HPM_P2
2022/10/02 00:00:30;;;;;;;30.27;28.55;;;18.80;99.90;;;;;;4970724;28;20031;-80
2022/10/02 00:03:15;;;;;;;30.00;28.23;;;18.70;99.90;;;;;;4965874;28;20027;-80
2022/10/02 00:05:44;;;;;;;30.00;28.17;;;18.70;99.90;;;;;;4944607;28;20046;-80
2022/10/02 00:08:17;;;;;;;32.53;30.33;;;18.70;99.60;;;;;;4967787;28;20031;-80
2022/10/02 00:10:58;;;;;;;32.28;30.33;;;18.70;99.50;;;;;;4965279;28;20028;-80
2022/10/02 00:13:38;;;;;;;33.85;31.85;;;18.70;99.50;;;;;;4937223;29;20465;-80
2022/10/02 00:16:07;;;;;;;35.73;33.10;;;18.60;99.60;;;;;;4952986;28;20042;-80
2022/10/02 00:18:34;;;;;;;39.70;37.22;;;18.60;99.50;;;;;;4954155;28;20035;-80
2022/10/02 00:21:05;;;;;;;38.83;35.63;;;18.60;99.60;;;;;;4969124;28;20047;-80
2022/10/02 00:23:43;;;;;;;34.80;32.47;;;18.60;99.60;;;;;;4963758;28;20032;-80
2022/10/02 00:26:15;;;;;;;37.20;34.05;;;18.50;99.60;;;;;;4965342;28;20030;-80
2022/10/02 00:29:09;;;;;;;32.28;29.67;;;18.60;99.70;;;;;;4951750;28;20066;-80
2022/10/02 00:31:41;;;;;;;36.42;33.55;;;18.50;99.40;;;;;;4956004;28;20039;-80
2022/10/02 00:34:45;;;;;;;35.80;32.60;;;18.50;99.60;;;;;;4953175;29;20511;-80
2022/10/02 00:37:39;;;;;;;34.00;31.38;;;18.40;99.80;;;;;;4933003;29;20040;-80
2022/10/02 00:40:32;;;;;;;32.78;30.15;;;18.30;99.70;;;;;;4918981;29;20031;-80
2022/10/02 00:43:39;;;;;;;34.70;31.80;;;18.30;99.70;;;;;;4916938;29;20502;-80
2022/10/02 00:46:20;;;;;;;36.13;33.60;;;18.30;99.70;;;;;;4928019;29;20405;-80
2022/10/02 00:48:57;;;;;;;33.00;30.73;;;18.30;99.70;;;;;;4931311;29;20059;-79
2022/10/02 00:51:23;;;;;;;32.38;30.08;;;18.40;99.50;;;;;;4917928;29;20544;-79
2022/10/02 00:54:27;;;;;;;33.33;31.08;;;18.30;99.60;;;;;;4915431;29;20066;-79
2022/10/02 00:57:21;;;;;;;33.42;31.27;;;18.30;99.70;;;;;;4859146;29;20033;-79
2022/10/02 01:00:08;;;;;;;32.97;30.48;;;18.30;99.70;;;;;;4866835;29;20098;-80
2022/10/02 01:02:52;;;;;;;31.27;29.00;;;18.30;99.60;;;;;;4854440;29;20044;-79
2022/10/02 01:05:18;;;;;;;29.40;27.30;;;18.40;99.50;;;;;;4874683;29;20041;-79
2022/10/02 01:07:47;;;;;;;32.67;30.50;;;18.40;99.40;;;;;;4891872;29;20401;-79
2022/10/02 01:10:13;;;;;;;34.42;31.88;;;18.50;99.10;;;;;;4929228;29;20493;-80
2022/10/02 01:12:40;;;;;;;35.50;32.70;;;18.50;98.90;;;;;;4931121;29;20389;-79
2022/10/02 01:15:13;;;;;;;38.88;36.38;;;18.50;98.90;;;;;;4926538;28;20052;-80
2022/10/02 01:17:39;;;;;;;39.88;37.00;;;18.50;98.90;;;;;;4928362;29;20036;-79
2022/10/02 01:20:06;;;;;;;42.38;39.55;;;18.40;98.90;;;;;;4912261;29;20044;-79
2022/10/02 01:23:19;;;;;;;45.55;42.47;;;18.50;98.70;;;;;;4912874;29;20044;-79
2022/10/02 01:25:45;;;;;;;39.80;37.00;;;18.50;98.40;;;;;;4896727;29;20055;-79
2022/10/02 01:28:11;;;;;;;40.30;37.22;;;18.50;98.50;;;;;;4895076;29;20153;-80
2022/10/02 01:30:39;;;;;;;45.30;41.75;;;18.50;98.30;;;;;;4893763;29;20032;-79
2022/10/02 01:33:05;;;;;;;43.22;39.90;;;18.50;98.20;;;;;;4898178;29;20374;-79
2022/10/02 01:35:32;;;;;;;43.83;40.67;;;18.50;98.10;;;;;;4909402;29;20053;-79
2022/10/02 01:38:01;;;;;;;39.72;36.47;;;18.50;98.10;;;;;;4910768;29;20558;-80
2022/10/02 01:40:29;;;;;;;41.17;37.78;;;18.50;98.30;;;;;;4902029;29;20043;-79
2022/10/02 01:43:01;;;;;;;39.25;35.97;;;18.40;98.10;;;;;;4911926;29;20036;-79
2022/10/02 01:46:28;;;;;;;41.00;37.88;;;18.40;98.20;;;;;;4912464;29;20032;-79
2022/10/02 01:49:11;;;;;;;35.63;32.70;;;18.40;98.30;;;;;;4895436;29;20124;-79
2022/10/02 01:52:20;;;;;;;36.83;34.05;;;18.40;98.30;;;;;;4889319;29;20037;-79
2022/10/02 01:55:04;;;;;;;38.92;35.67;;;18.30;98.30;;;;;;4872425;29;20052;-79
2022/10/02 01:57:34;;;;;;;37.45;34.05;;;18.30;98.30;;;;;;4874036;29;20044;-79
2022/10/02 02:00:13;;;;;;;39.75;36.42;;;18.40;98.20;;;;;;4889352;29;20407;-79
2022/10/02 02:03:01;;;;;;;36.15;33.13;;;18.30;98.20;;;;;;4930296;28;20051;-79
2022/10/02 02:05:35;;;;;;;38.03;34.47;;;18.40;98.20;;;;;;4945183;28;20047;-79
2022/10/02 02:08:25;;;;;;;35.95;32.95;;;18.30;98.00;;;;;;4927425;29;20070;-79
2022/10/02 02:11:12;;;;;;;36.40;33.53;;;18.30;98.20;;;;;;4946423;28;20051;-79
2022/10/02 02:14:03;;;;;;;35.85;32.55;;;18.30;98.20;;;;;;4945840;28;20047;-79
2022/10/02 02:17:02;;;;;;;;;;;18.30;98.20;;;;;;4930890;28;20039;-79
2022/10/02 02:19:35;;;;;;;34.42;31.40;;;18.30;98.10;;;;;;4918783;29;19915;-79
2022/10/02 02:22:06;;;;;;;35.60;31.90;;;18.30;98.40;;;;;;4898594;29;20044;-79
2022/10/02 02:24:40;;;;;;;34.78;31.55;;;18.20;98.60;;;;;;4910811;29;20028;-79
2022/10/02 02:27:06;;;;;;;38.40;34.83;;;18.10;98.90;;;;;;4911258;29;20556;-79
2022/10/02 02:29:33;;;;;;;36.97;33.17;;;18.20;98.90;;;;;;4921165;29;20062;-79
2022/10/02 02:32:02;;;;;;;39.22;35.60;;;18.20;99.00;;;;;;4935000;29;20665;-79
2022/10/02 02:34:34;;;;;;;36.67;33.83;;;18.10;99.20;;;;;;4913984;29;20040;-79
2022/10/02 02:37:04;;;;;;;37.95;34.10;;;18.10;99.30;;;;;;4915079;29;20208;-78
2022/10/02 02:39:39;;;;;;;37.25;34.05;;;18.20;99.20;;;;;;4915073;29;20560;-79
2022/10/02 02:42:06;;;;;;;39.78;35.45;;;18.20;99.20;;;;;;4915218;29;20040;-78
2022/10/02 02:44:39;;;;;;;38.60;34.97;;;18.20;99.00;;;;;;4914428;29;20035;-79
2022/10/02 02:47:11;;;;;;;39.17;35.75;;;18.20;98.90;;;;;;4915661;29;20043;-79
2022/10/02 02:49:43;;;;;;;41.25;35.50;;;18.30;98.70;;;;;;4914006;29;20056;-79
2022/10/02 02:52:12;;;;;;;40.47;36.47;;;18.20;98.60;;;;;;4912231;29;20035;-78
2022/10/02 02:54:47;;;;;;;41.40;37.58;;;18.20;98.70;;;;;;4934919;28;20047;-79
2022/10/02 02:57:13;;;;;;;41.15;37.83;;;18.30;98.60;;;;;;4965240;28;20034;-79
2022/10/02 02:59:39;;;;;;;40.47;36.53;;;18.20;98.70;;;;;;4954448;28;20040;-79
2022/10/02 03:02:06;;;;;;;38.95;35.72;;;18.20;98.60;;;;;;4940396;28;20035;-78
2022/10/02 03:04:32;;;;;;;39.80;36.53;;;18.20;98.70;;;;;;4961022;28;20024;-79
2022/10/02 03:07:00;;;;;;;39.30;35.25;;;18.20;98.90;;;;;;4948309;28;20038;-78
2022/10/02 03:09:26;;;;;;;40.50;36.45;;;18.20;98.60;;;;;;4951910;28;20046;-79
2022/10/02 03:11:59;;;;;;;43.72;39.38;;;18.30;98.50;;;;;;4966651;28;20027;-79
2022/10/02 03:14:44;;;;;;;41.60;38.40;;;18.20;98.40;;;;;;4941381;29;20527;-79
2022/10/02 03:17:22;;;;;;;41.58;37.72;;;18.30;98.20;;;;;;4954737;28;20525;-78
2022/10/02 03:20:10;;;;;;;42.25;38.03;;;18.20;98.20;;;;;;4957151;28;20027;-79
2022/10/02 03:23:04;;;;;;;43.10;38.90;;;18.30;98.10;;;;;;4965952;28;20043;-79
2022/10/02 03:25:44;;;;;;;39.17;35.55;;;18.30;98.20;;;;;;4954273;29;20388;-79
2022/10/02 03:28:43;;;;;;;43.03;38.33;;;18.20;98.20;;;;;;4950285;28;20051;-79
2022/10/02 03:31:09;;;;;;;41.83;37.45;;;18.30;98.10;;;;;;4929895;28;20307;-79
2022/10/02 03:33:35;;;;;;;39.78;35.90;;;18.30;98.00;;;;;;4903297;29;20048;-78
2022/10/02 03:36:02;;;;;;;43.58;39.80;;;18.30;98.00;;;;;;4919667;29;20028;-78
2022/10/02 03:38:28;;;;;;;48.53;44.17;;;18.20;97.90;;;;;;4903588;29;20051;-78
2022/10/02 03:40:57;;;;;;;50.33;45.63;;;18.30;97.80;;;;;;4903218;29;20035;-78
2022/10/02 03:43:24;;;;;;;50.40;46.17;;;18.30;97.70;;;;;;4903776;29;20052;-78
2022/10/02 03:45:50;;;;;;;46.22;41.75;;;18.20;97.70;;;;;;4900811;29;20036;-79
2022/10/02 03:48:16;;;;;;;43.03;38.30;;;18.20;97.60;;;;;;4901063;29;20051;-78
2022/10/02 03:50:43;;;;;;;40.95;36.33;;;18.10;97.90;;;;;;4934144;29;20452;-78
2022/10/02 03:53:20;;;;;;;39.90;36.45;;;18.10;97.90;;;;;;4934465;29;20039;-78
2022/10/02 03:55:54;;;;;;;43.55;37.03;;;18.10;97.80;;;;;;4933661;29;20397;-78
2022/10/02 03:58:20;;;;;;;38.60;33.60;;;18.10;97.80;;;;;;4903308;29;20063;-80
2022/10/02 04:00:52;;;;;;;39.25;35.63;;;18.10;97.90;;;;;;4919421;29;20039;-80
2022/10/02 04:03:27;;;;;;;40.75;34.42;;;18.00;98.10;;;;;;4918180;29;20259;-78
2022/10/02 04:06:04;;;;;;;38.30;34.88;;;18.00;98.20;;;;;;4906409;29;20496;-78
2022/10/02 04:08:36;;;;;;;47.00;36.17;;;18.00;98.40;;;;;;4970723;28;20067;-78
2022/10/02 04:11:11;;;;;;;42.22;36.22;;;18.00;98.20;;;;;;4968657;28;20046;-78
2022/10/02 04:13:40;;;;;;;43.17;37.65;;;18.00;98.00;;;;;;4946068;29;20047;-78
2022/10/02 04:16:17;;;;;;;39.58;35.40;;;18.10;97.90;;;;;;4938559;28;20054;-78
2022/10/02 04:18:49;;;;;;;40.72;35.47;;;18.00;98.00;;;;;;4954526;28;20039;-78
2022/10/02 04:21:28;;;;;;;40.40;36.63;;;18.00;98.10;;;;;;4971184;28;20023;-80
2022/10/02 04:23:58;;;;;;;47.33;42.80;;;18.00;98.00;;;;;;4969493;28;20043;-78
2022/10/02 04:26:27;;;;;;;48.20;44.00;;;18.10;97.80;;;;;;4966915;28;20035;-78
2022/10/02 04:29:04;;;;;;;45.42;40.97;;;18.10;97.70;;;;;;4944433;28;20040;-78
2022/10/02 04:31:30;;;;;;;39.92;35.47;;;18.00;97.80;;;;;;4954960;28;20032;-78
2022/10/02 04:34:01;;;;;;;39.22;35.63;;;18.00;98.10;;;;;;4954812;28;20050;-80
2022/10/02 04:36:37;;;;;;;44.03;39.67;;;18.00;98.10;;;;;;4967551;28;20038;-80
2022/10/02 04:39:22;;;;;;;49.97;45.10;;;18.00;98.10;;;;;;4946133;29;20027;-78
2022/10/02 04:41:57;;;;;;;46.88;42.30;;;18.00;97.90;;;;;;4965563;28;20039;-80
2022/10/02 04:44:29;;;;;;;46.97;42.38;;;18.00;97.80;;;;;;4950213;29;20050;-80
2022/10/02 04:46:58;;;;;;;51.38;46.42;;;18.00;97.70;;;;;;4954657;28;20042;-78
2022/10/02 04:49:33;;;;;;;48.97;43.95;;;17.90;98.00;;;;;;4954386;28;20043;-77
2022/10/02 04:52:34;;;;;;;48.97;44.75;;;17.90;98.10;;;;;;4952927;28;20031;-78
2022/10/02 04:55:20;;;;;;;46.95;42.00;;;17.90;98.10;;;;;;4932380;29;20075;-80
2022/10/02 04:58:18;;;;;;;48.40;43.85;;;17.90;98.10;;;;;;4917470;29;20413;-80
2022/10/02 05:00:58;;;;;;;49.30;44.30;;;17.90;98.10;;;;;;4858329;29;20422;-80
2022/10/02 05:03:52;;;;;;;50.22;45.95;;;17.90;98.10;;;;;;4852225;29;20155;-80
2022/10/02 05:06:24;;;;;;;42.67;38.38;;;17.90;98.30;;;;;;4851724;29;20045;-80
2022/10/02 05:08:56;;;;;;;45.67;39.97;;;17.80;98.50;;;;;;4858537;29;20060;-80
2022/10/02 05:11:44;;;;;;;40.13;35.65;;;17.90;98.50;;;;;;4855456;29;20042;-79
2022/10/02 05:14:39;;;;;;;39.45;35.40;;;17.80;98.60;;;;;;4858056;29;20056;-80
2022/10/02 05:17:25;;;;;;;39.97;35.35;;;17.90;98.60;;;;;;4855734;29;20042;-80
2022/10/02 05:20:03;;;;;;;43.75;33.25;;;18.00;98.50;;;;;;4851167;29;20166;-80
2022/10/02 05:22:49;;;;;;;39.38;33.38;;;18.00;98.50;;;;;;4824087;29;20049;-80
2022/10/02 05:25:28;;;;;;;46.55;34.00;;;17.90;98.70;;;;;;4824357;29;20053;-80
2022/10/02 05:27:57;;;;;;;58.88;33.15;;;17.80;98.90;;;;;;4824668;29;20055;-80
2022/10/02 05:30:23;;;;;;;36.95;33.08;;;17.80;99.10;;;;;;4841524;29;20233;-80
2022/10/02 05:33:21;;;;;;;44.50;33.22;;;17.80;99.30;;;;;;4824992;29;20148;-80
2022/10/02 05:35:48;;;;;;;36.83;32.58;;;17.90;99.20;;;;;;4858208;29;20434;-80
2022/10/02 05:38:32;;;;;;;33.30;29.85;;;17.80;99.10;;;;;;4886955;29;20037;-80
2022/10/02 05:41:47;;;;;;;34.63;30.77;;;17.80;99.10;;;;;;4877315;29;20033;-80
2022/10/02 05:44:37;;;;;;;35.53;29.98;;;17.90;99.00;;;;;;4839067;29;20050;-82
2022/10/02 05:47:10;;;;;;;33.47;30.13;;;17.90;98.80;;;;;;4832698;29;20376;-81
2022/10/02 05:49:55;;;;;;;35.63;31.48;;;17.90;98.90;;;;;;4828033;29;20059;-81
2022/10/02 05:52:22;;;;;;;39.65;28.77;;;17.90;99.00;;;;;;4843191;29;20414;-79
2022/10/02 05:54:57;;;;;;;31.42;27.45;;;17.80;99.30;;;;;;4831889;29;20531;-79
2022/10/02 05:57:33;;;;;;;31.00;27.60;;;17.80;99.70;;;;;;4868512;29;20414;-79
2022/10/02 06:00:17;;;;;;;34.90;25.65;;;17.80;99.90;;;;;;4864550;29;20041;-80
2022/10/02 06:02:56;;;;;;;29.42;26.63;;;17.80;99.70;;;;;;4894817;29;20164;-79
2022/10/02 06:05:33;;;;;;;30.27;27.42;;;17.80;99.60;;;;;;4893041;29;20039;-80
2022/10/02 06:08:01;;;;;;;31.77;27.60;;;17.80;99.70;;;;;;4890873;29;20048;-81
2022/10/02 06:10:34;;;;;;;31.00;28.15;;;17.80;99.80;;;;;;4882134;29;20044;-79
2022/10/02 06:13:07;;;;;;;37.83;28.75;;;17.80;99.60;;;;;;4867291;29;20045;-80
2022/10/02 06:15:48;;;;;;;32.90;29.02;;;17.90;99.60;;;;;;4863231;29;20032;-84
2022/10/02 06:18:22;;;;;;;35.25;31.00;;;17.90;99.60;;;;;;4880052;29;20124;-81
2022/10/02 06:21:04;;;;;;;35.05;31.98;;;17.90;99.30;;;;;;4893297;29;20051;-81
2022/10/02 06:23:41;;;;;;;33.83;30.63;;;18.00;99.40;;;;;;4962254;28;20038;-79
2022/10/02 06:26:14;;;;;;;35.42;32.08;;;18.00;99.40;;;;;;4968595;28;20042;-79
2022/10/02 06:28:50;;;;;;;33.28;29.80;;;18.00;99.20;;;;;;4953177;28;20039;-79
2022/10/02 06:31:44;;;;;;;36.90;33.20;;;18.00;99.30;;;;;;4951365;28;20043;-79
2022/10/02 06:34:11;;;;;;;37.15;33.63;;;18.00;99.50;;;;;;4902035;29;20043;-81
2022/10/02 06:36:44;;;;;;;34.75;31.23;;;18.00;99.30;;;;;;4894573;29;20040;-80
2022/10/02 06:39:25;;;;;;;37.92;34.60;;;18.10;99.20;;;;;;4900771;29;20043;-79
2022/10/02 06:42:09;;;;;;;;;;;18.00;99.40;;;;;;4932588;29;20047;-78
2022/10/02 06:45:14;;;;;;;33.70;30.60;;;18.00;99.60;;;;;;4932131;28;19915;-79
2022/10/02 06:48:19;;;;;;;33.88;30.42;;;18.10;99.40;;;;;;4918088;29;20051;-79
2022/10/02 06:50:53;;;;;;;34.70;32.15;;;18.00;99.60;;;;;;4882755;29;20043;-80
2022/10/02 06:53:44;;;;;;;37.60;34.53;;;18.00;99.60;;;;;;4897581;29;20036;-79
2022/10/02 06:56:44;;;;;;;34.38;31.95;;;18.10;99.40;;;;;;4864782;29;20059;-78
2022/10/02 06:59:13;;;;;;;37.90;34.92;;;18.10;99.60;;;;;;4890027;29;20047;-78
2022/10/02 07:02:16;;;;;;;37.17;34.25;;;18.20;99.20;;;;;;4881672;29;20399;-78
2022/10/02 07:05:19;;;;;;;36.55;33.78;;;18.30;99.20;;;;;;4837143;29;20173;-79
2022/10/02 07:08:15;;;;;;;39.88;36.85;;;18.30;99.10;;;;;;4823564;29;20046;-79
2022/10/02 07:10:43;;;;;;;41.45;38.95;;;18.40;99.10;;;;;;4812742;29;20417;-77
2022/10/02 07:13:31;;;;;;;54.15;50.78;;;18.40;99.00;;;;;;4834660;29;20110;-77
2022/10/02 07:16:08;;;;;;;59.20;55.47;;;18.30;99.20;;;;;;4834549;29;20042;-77
2022/10/02 07:18:41;;;;;;;59.67;56.22;;;18.30;99.20;;;;;;4808596;29;20037;-78
2022/10/02 07:21:16;;;;;;;65.25;61.10;;;18.50;99.00;;;;;;4832390;29;20051;-77
2022/10/02 07:24:02;;;;;;;58.50;54.90;;;18.40;99.10;;;;;;4823010;29;20059;-77
2022/10/02 07:26:44;;;;;;;56.60;52.95;;;18.50;98.90;;;;;;4851170;29;20052;-79
2022/10/02 07:29:28;;;;;;;52.58;49.53;;;18.50;99.00;;;;;;4865098;29;20560;-79
2022/10/02 07:32:13;;;;;;;52.28;49.08;;;18.50;98.80;;;;;;4872295;29;20062;-77
2022/10/02 07:35:08;;;;;;;48.25;44.80;;;18.50;98.80;;;;;;4862582;29;20092;-80
2022/10/02 07:37:37;;;;;;;46.85;43.72;;;18.50;98.90;;;;;;4869291;29;20516;-80
2022/10/02 07:40:18;;;;;;;47.60;44.67;;;18.50;99.10;;;;;;4877666;29;20045;-79
2022/10/02 07:42:50;;;;;;;47.60;44.28;;;18.50;99.10;;;;;;4956785;28;20401;-79
2022/10/02 07:45:40;;;;;;;36.42;33.50;;;18.50;99.00;;;;;;4970547;28;20038;-79
2022/10/02 07:48:41;;;;;;;55.78;51.65;;;18.60;99.20;;;;;;4974829;28;20380;-79
2022/10/02 07:54:22;;;;;;;30.25;27.58;;;18.90;98.60;;;;;;4969367;28;20129;-78
2022/10/02 07:56:48;;;;;;;29.35;26.90;;;19.00;98.40;;;;;;4955664;28;20043;-79
2022/10/02 07:59:16;;;;;;;24.42;22.05;;;19.00;98.20;;;;;;4962458;28;20051;-79
2022/10/02 08:01:42;;;;;;;25.30;23.13;;;18.90;98.30;;;;;;4943591;28;20036;-79
2022/10/02 08:04:17;;;;;;;32.83;26.92;;;18.90;98.30;;;;;;4953063;28;20366;-79
2022/10/02 08:06:46;;;;;;;30.50;27.80;;;18.90;98.40;;;;;;4937389;28;20039;-80
2022/10/02 08:09:20;;;;;;;24.88;22.30;;;18.90;98.40;;;;;;4951141;28;20040;-80
2022/10/02 08:11:58;;;;;;;39.20;36.30;;;18.90;98.10;;;;;;4951508;28;20032;-80
2022/10/02 08:14:51;;;;;;;37.58;34.17;;;18.90;98.20;;;;;;4954176;28;20062;-79
2022/10/02 08:17:24;;;;;;;40.03;37.10;;;18.80;98.20;;;;;;4941439;28;20039;-79
2022/10/02 08:19:50;;;;;;;37.38;34.25;;;18.90;98.30;;;;;;4935770;28;20039;-78
2022/10/02 08:22:38;;;;;;;28.80;26.10;;;18.90;98.40;;;;;;4934841;29;20043;-80
2022/10/02 08:25:12;;;;;;;27.52;24.70;;;18.80;98.10;;;;;;4955821;28;20035;-81
2022/10/02 08:27:58;;;;;;;29.17;22.33;;;18.80;98.20;;;;;;4952160;28;20042;-83
2022/10/02 08:30:24;;;;;;;30.92;28.05;;;18.70;98.10;;;;;;4952479;28;20516;-83
2022/10/02 08:32:50;;;;;;;27.05;24.08;;;18.80;98.40;;;;;;4968929;28;20043;-84
2022/10/02 08:35:18;;;;;;;31.52;29.33;;;18.90;98.80;;;;;;4970730;28;20019;-84
2022/10/02 08:38:32;;;;;;;28.95;26.23;;;19.00;98.60;;;;;;4970596;28;20031;-84
2022/10/02 08:41:22;;;;;;;33.08;30.50;;;18.90;98.40;;;;;;4921897;29;20027;-84
2022/10/02 08:44:12;;;;;;;25.25;23.08;;;19.00;98.70;;;;;;4927035;29;20047;-87
2022/10/02 08:46:57;;;;;;;32.05;29.10;;;19.00;98.70;;;;;;4896822;29;20032;-85
2022/10/02 08:49:40;;;;;;;30.92;28.13;;;19.00;98.80;;;;;;4911229;29;20063;-82
2022/10/02 08:52:47;;;;;;;31.42;28.88;;;19.00;98.80;;;;;;4899526;29;20365;-82
2022/10/02 08:55:25;;;;;;;27.40;22.92;;;19.10;98.10;;;;;;4839617;29;20049;-82
2022/10/02 08:58:30;;;;;;;31.05;28.27;;;19.10;99.00;;;;;;4845093;29;20061;-83
2022/10/02 09:01:34;;;;;;;27.40;24.55;;;19.10;98.40;;;;;;4839022;29;20042;-82
2022/10/02 09:04:25;;;;;;;23.92;21.88;;;19.20;98.90;;;;;;4819746;29;20042;-81
2022/10/02 09:07:21;;;;;;;26.60;23.80;;;19.20;98.20;;;;;;4807860;29;20389;-81
2022/10/02 09:10:46;;;;;;;32.22;29.98;;;19.30;98.00;;;;;;4812647;29;20196;-81
2022/10/02 09:13:41;;;;;;;33.15;28.73;;;19.40;98.40;;;;;;4715545;30;20057;-80
2022/10/02 09:16:12;;;;;;;29.27;26.85;;;19.40;97.80;;;;;;4746016;29;20044;-81
2022/10/02 09:18:47;;;;;;;35.60;32.58;;;19.40;98.00;;;;;;4756190;30;20055;-81
2022/10/02 09:21:26;;;;;;;36.30;32.95;;;19.50;97.50;;;;;;4751995;30;20060;-80
2022/10/02 09:24:13;;;;;;;40.60;37.33;;;19.60;97.40;;;;;;4764302;30;20051;-81
2022/10/02 09:27:05;;;;;;;35.17;31.85;;;19.50;97.10;;;;;;4767018;30;20055;-80
2022/10/02 09:29:47;;;;;;;35.88;32.80;;;19.50;97.20;;;;;;4762445;30;20073;-79
2022/10/02 09:32:43;;;;;;;37.45;34.53;;;19.50;97.10;;;;;;4768939;29;20177;-80
2022/10/02 09:35:24;;;;;;;27.85;25.25;;;19.50;97.40;;;;;;4768080;30;20055;-81
2022/10/02 09:38:09;;;;;;;34.55;32.20;;;19.60;97.30;;;;;;4775800;29;20055;-81
2022/10/02 09:40:59;;;;;;;34.53;31.38;;;19.60;96.90;;;;;;4765397;30;20047;-87
2022/10/02 09:44:05;;;;;;;41.03;37.58;;;19.70;97.20;;;;;;4768182;30;20418;-84
2022/10/02 09:46:58;;;;;;;41.90;38.47;;;19.80;96.80;;;;;;4780734;29;20049;-81
2022/10/02 09:50:06;;;;;;;38.83;35.92;;;19.80;96.70;;;;;;4858239;29;20512;-79
2022/10/02 09:52:53;;;;;;;38.75;35.38;;;19.80;96.40;;;;;;4880347;29;20041;-79
2022/10/02 09:55:35;;;;;;;32.45;29.15;;;19.80;96.60;;;;;;4892058;29;20041;-79
2022/10/02 09:58:20;;;;;;;29.60;26.77;;;19.80;96.70;;;;;;4892942;29;20486;-79
2022/10/02 10:01:12;;;;;;;27.63;25.10;;;19.80;96.90;;;;;;4894884;29;20040;-79
2022/10/02 10:03:50;;;;;;;32.25;29.33;;;19.80;97.00;;;;;;4894349;29;20494;-79
2022/10/02 10:06:53;;;;;;;31.10;28.73;;;19.80;97.30;;;;;;4897110;29;20055;-77
2022/10/02 10:09:35;;;;;;;30.58;28.00;;;19.70;97.50;;;;;;4957990;28;20401;-79
2022/10/02 10:12:21;;;;;;;32.55;29.98;;;19.70;97.90;;;;;;4953291;28;20042;-79
2022/10/02 10:15:05;;;;;;;33.58;30.80;;;19.60;97.90;;;;;;4934324;29;20039;-78
2022/10/02 10:18:09;;;;;;;43.70;40.35;;;19.60;98.00;;;;;;4930665;29;20036;-79
2022/10/02 10:21:01;;;;;;;43.60;40.15;;;19.50;98.20;;;;;;4938311;28;20581;-79
2022/10/02 10:23:51;;;;;;;44.85;41.45;;;19.50;98.30;;;;;;4924903;29;20035;-79
2022/10/02 10:26:33;;;;;;;40.90;38.33;;;19.50;98.40;;;;;;4933979;29;20046;-78
2022/10/02 10:29:11;;;;;;;41.55;38.78;;;19.50;98.20;;;;;;4951155;28;20083;-78
2022/10/02 10:32:15;;;;;;;38.05;35.03;;;19.50;98.70;;;;;;4935724;28;20394;-80
2022/10/02 10:35:15;;;;;;;35.75;33.45;;;19.40;98.80;;;;;;4942664;29;20035;-79
2022/10/02 10:38:31;;;;;;;34.88;32.45;;;19.50;98.90;;;;;;4922969;29;20517;-78
2022/10/02 10:41:08;;;;;;;36.38;33.60;;;19.60;98.40;;;;;;4913424;29;20047;-77
2022/10/02 10:43:43;;;;;;;37.55;35.03;;;19.60;98.20;;;;;;4937318;28;20063;-79
2022/10/02 10:46:31;;;;;;;46.00;43.20;;;19.70;98.40;;;;;;4915985;29;20031;-78
2022/10/02 10:49:09;;;;;;;41.17;38.35;;;19.70;98.20;;;;;;4926267;29;20044;-78
2022/10/02 10:51:54;;;;;;;45.28;42.30;;;19.70;98.10;;;;;;4948528;29;20044;-79
2022/10/02 10:54:47;;;;;;;37.30;34.47;;;19.80;98.10;;;;;;4945730;28;20030;-78
2022/10/02 10:57:31;;;;;;;43.92;40.72;;;19.80;98.00;;;;;;4961936;28;20401;-78
2022/10/02 11:00:13;;;;;;;47.85;44.83;;;19.70;98.00;;;;;;4944565;28;20031;-78
2022/10/02 11:03:00;;;;;;;25.40;23.48;;;19.70;97.50;;;;;;4952779;28;20035;-79
2022/10/02 11:05:41;;;;;;;25.95;24.10;;;19.70;96.70;;;;;;4950457;28;20038;-77
2022/10/02 11:08:32;;;;;;;24.00;22.17;;;19.60;96.60;;;;;;4960685;28;20528;-82
2022/10/02 11:11:06;;;;;;;28.20;26.15;;;19.50;96.40;;;;;;4933569;29;20503;-81
2022/10/02 11:13:54;;;;;;;29.85;27.85;;;19.30;97.00;;;;;;4938602;28;20370;-82
2022/10/02 11:16:23;;;;;;;37.47;34.65;;;19.30;97.80;;;;;;4951011;28;20058;-79
2022/10/02 11:19:13;;;;;;;35.97;33.70;;;19.50;98.80;;;;;;4948761;28;20032;-81
2022/10/02 11:22:06;;;;;;;41.45;38.95;;;19.70;98.10;;;;;;4953188;28;20388;-81
2022/10/02 11:25:00;;;;;;;44.85;41.38;;;19.90;97.90;;;;;;4952798;29;20404;-82
2022/10/02 11:28:00;;;;;;;26.17;24.55;;;20.00;98.00;;;;;;4961501;28;20116;-80
2022/10/02 11:30:39;;;;;;;27.90;25.88;;;20.00;96.80;;;;;;4946068;28;20039;-82
2022/10/02 11:33:28;;;;;;;35.25;33.08;;;20.00;96.50;;;;;;4966054;28;20058;-80
2022/10/02 11:36:43;;;;;;;31.02;29.05;;;20.00;96.10;;;;;;4950943;28;20038;-81
2022/10/02 11:39:27;;;;;;;30.48;28.50;;;20.00;96.20;;;;;;4936559;28;20408;-80
2022/10/02 11:42:20;;;;;;;30.10;28.20;;;20.00;95.60;;;;;;4953882;28;20035;-81
2022/10/02 11:45:07;;;;;;;35.40;33.05;;;20.10;96.30;;;;;;4919969;29;20040;-81
2022/10/02 11:47:39;;;;;;;39.97;37.67;;;20.30;95.90;;;;;;4934266;29;20051;-83
2022/10/02 11:50:39;;;;;;;36.75;34.20;;;20.50;95.60;;;;;;4934963;29;20130;-81
2022/10/02 11:53:16;;;;;;;45.58;42.67;;;20.60;95.50;;;;;;4918671;29;20111;-83
2022/10/02 11:55:46;;;;;;;43.50;41.10;;;20.80;94.20;;;;;;4919064;29;20488;-82
2022/10/02 11:58:54;;;;;;;48.13;45.03;;;20.80;93.60;;;;;;4918635;29;20044;-84
2022/10/02 12:01:44;;;;;;;34.78;31.98;;;20.80;94.20;;;;;;4918502;29;20040;-82
2022/10/02 12:04:28;;;;;;;40.72;37.97;;;20.90;94.00;;;;;;4918169;29;20050;-81
2022/10/02 12:07:16;;;;;;;36.90;34.10;;;21.00;92.70;;;;;;4929740;29;20613;-83
2022/10/02 12:10:05;;;;;;;44.38;41.20;;;21.00;92.00;;;;;;4934103;29;20051;-82
2022/10/02 12:12:34;;;;;;;36.22;33.55;;;20.90;91.00;;;;;;4918715;29;20051;-82
2022/10/02 12:15:12;;;;;;;35.92;33.28;;;20.90;91.40;;;;;;4931036;29;20571;-82
2022/10/02 12:17:54;;;;;;;39.92;37.05;;;21.00;91.60;;;;;;4924307;29;20036;-83
2022/10/02 12:29:25;;;;;;;43.83;40.95;;;21.20;89.10;;;;;;4958274;28;20050;-86
2022/10/02 12:31:55;;;;;;;45.42;42.03;;;21.30;87.90;;;;;;4954044;28;20404;-87
2022/10/02 12:34:21;;;;;;;41.53;38.58;;;21.40;88.70;;;;;;4936018;29;20123;-85
2022/10/02 12:37:25;;;;;;;42.75;39.63;;;21.40;87.80;;;;;;4937775;29;20031;-86
2022/10/02 12:40:22;;;;;;;45.22;42.05;;;21.40;85.80;;;;;;4949936;29;20329;-78
2022/10/02 12:43:16;;;;;;;42.53;39.92;;;21.40;87.70;;;;;;4953230;28;20042;-83
2022/10/02 12:46:23;;;;;;;51.42;48.22;;;21.30;84.60;;;;;;4953266;28;20045;-83
2022/10/02 12:48:52;;;;;;;54.97;51.60;;;21.30;84.70;;;;;;4953161;28;20042;-79
2022/10/02 12:51:37;;;;;;;73.07;69.10;;;21.40;84.80;;;;;;4964339;28;20059;-78
2022/10/02 12:54:32;;;;;;;84.90;80.32;;;21.60;84.10;;;;;;4958133;28;20031;-83
2022/10/02 12:57:07;;;;;;;78.50;74.40;;;21.80;79.10;;;;;;4955756;28;20389;-82
2022/10/02 12:59:36;;;;;;;86.63;81.97;;;21.80;79.10;;;;;;4935674;29;20043;-83
2022/10/02 13:02:40;;;;;;;72.13;67.93;;;21.90;78.80;;;;;;4965381;28;20040;-83
2022/10/02 13:05:06;;;;;;;100.25;94.93;;;21.90;79.50;;;;;;4936400;29;20039;-83
2022/10/02 13:08:01;;;;;;;105.93;100.43;;;21.90;75.60;;;;;;4950444;28;20040;-82
2022/10/02 13:10:33;;;;;;;103.40;98.20;;;21.90;75.20;;;;;;4936926;29;20050;-82
2022/10/02 13:13:18;;;;;;;101.53;96.40;;;21.90;73.90;;;;;;4951653;29;20341;-82
2022/10/02 13:15:53;;;;;;;110.55;104.68;;;22.00;75.40;;;;;;4969195;28;20511;-82
2022/10/02 13:18:44;;;;;;;99.55;94.40;;;22.00;74.90;;;;;;4938802;29;20050;-81
2022/10/02 13:21:29;;;;;;;;;;;21.90;73.80;;;;;;4951347;29;20548;-82
2022/10/02 13:24:21;;;;;;;80.65;76.18;;;21.80;72.50;;;;;;4950239;29;19906;-82
2022/10/02 13:26:50;;;;;;;75.00;71.00;;;21.60;73.10;;;;;;4958175;28;20038;-82
2022/10/02 13:29:56;;;;;;;81.65;77.32;;;21.50;72.40;;;;;;4939563;29;20024;-82
2022/10/02 13:32:34;;;;;;;84.00;79.82;;;21.60;73.10;;;;;;4960563;28;20066;-82
2022/10/02 13:35:14;;;;;;;87.90;83.00;;;21.60;72.70;;;;;;4953651;28;20408;-82
2022/10/02 13:37:57;;;;;;;80.82;76.53;;;21.50;72.90;;;;;;4938052;28;20508;-82
2022/10/02 13:40:45;;;;;;;81.43;77.03;;;21.50;70.90;;;;;;4928774;29;20050;-82
2022/10/02 13:43:17;;;;;;;90.40;85.80;;;21.50;72.20;;;;;;4945142;28;20046;-83
2022/10/02 13:45:49;;;;;;;90.25;85.60;;;21.70;71.30;;;;;;4961103;28;20042;-82
2022/10/02 13:48:30;;;;;;;81.15;76.85;;;21.70;70.20;;;;;;4953452;28;20598;-83
2022/10/02 13:51:20;;;;;;;86.47;82.05;;;21.60;68.90;;;;;;4968681;28;20055;-82